Terminal Aerodrome Forecast
Issued by NWS

Home | Current Version | Previous Version | Text Only | Print | Product List | Glossary On
Versions: 1 2 3 4 5 6 7 8 9 10 11 12 13 14 15 16 17
000
FTUS44 KTSA 181100
TAFMLC
TAF
KMLC 181132Z 1812/1912 08007KT P6SM BKN040
      TEMPO 1813/1816 5SM -TSRA BKN030CB
     FM181600 15007KT P6SM SCT040 BKN150
     FM181800 16007KT P6SM VCTS SCT040CB
     FM190000 00000KT P6SM SCT250
     FM190800 00000KT 5SM BR SKC=

USA.gov is the U.S. government's official web portal to all federal, state and local government web resources and services.